Time;durP1;ratioP1;P1;durP2;ratioP2;P2;SDS_P1;SDS_P2;PMS_P1;PMS_P2;Temp;Humidity;BMP_temperature;BMP_pressure;BME280_temperature;BME280_humidity;BME280_pressure;Samples;Min_cycle;Max_cycle;Signal;HPM_P1;HPM_P2
2021/06/24 00:01:04;;;;;;;2.10;1.70;;;;;;;;;;5012621;28;20477;-65
2021/06/24 00:03:32;;;;;;;3.00;1.80;;;;;;;;;;5004344;28;20840;-65
2021/06/24 00:06:00;;;;;;;3.03;1.93;;;;;;;;;;5007921;28;20477;-65
2021/06/24 00:08:27;;;;;;;1.90;1.50;;;;;;;;;;4997050;28;20493;-65
2021/06/24 00:10:57;;;;;;;2.90;2.17;;;;;;;;;;5007812;28;20463;-65
2021/06/24 00:13:24;;;;;;;3.00;1.83;;;;;;;;;;4995549;28;20451;-65
2021/06/24 00:15:53;;;;;;;3.10;1.80;;;;;;;;;;5007269;28;20489;-65
2021/06/24 00:18:21;;;;;;;3.43;2.03;;;;;;;;;;4995841;28;20457;-65
2021/06/24 00:20:49;;;;;;;3.63;1.93;;;;;;;;;;5009576;28;20465;-65
2021/06/24 00:23:16;;;;;;;4.27;1.73;;;;;;;;;;5011447;28;20466;-65
2021/06/24 00:25:44;;;;;;;3.97;1.97;;;;;;;;;;5010252;28;20479;-65
2021/06/24 00:28:15;;;;;;;4.40;2.30;;;;;;;;;;5002721;28;20492;-64
2021/06/24 00:30:42;;;;;;;4.47;2.17;;;;;;;;;;5003389;28;20501;-65
2021/06/24 00:33:10;;;;;;;2.67;1.90;;;;;;;;;;5002217;28;20473;-65
2021/06/24 00:35:37;;;;;;;3.40;1.70;;;;;;;;;;5009995;28;20489;-65
2021/06/24 00:38:05;;;;;;;3.70;1.80;;;;;;;;;;5012665;28;20868;-65
2021/06/24 00:40:33;;;;;;;3.40;2.07;;;;;;;;;;5004034;28;20485;-65
2021/06/24 00:43:01;;;;;;;2.67;1.70;;;;;;;;;;5012463;28;20469;-65
2021/06/24 00:45:28;;;;;;;3.60;2.03;;;;;;;;;;5013016;28;20473;-65
2021/06/24 00:47:55;;;;;;;3.67;1.90;;;;;;;;;;5007839;28;20461;-65
2021/06/24 00:50:24;;;;;;;1.87;1.60;;;;;;;;;;5012783;28;20464;-65
2021/06/24 00:52:51;;;;;;;3.83;2.40;;;;;;;;;;5012880;28;20476;-65
2021/06/24 00:55:39;;;;;;;5.67;2.23;;;;;;;;;;5010597;28;20489;-65
2021/06/24 00:58:05;;;;;;;2.97;2.00;;;;;;;;;;5010184;28;20563;-65
2021/06/24 01:00:32;;;;;;;3.70;2.03;;;;;;;;;;5011184;28;20478;-64
2021/06/24 01:02:59;;;;;;;2.60;1.77;;;;;;;;;;5010742;28;20965;-62
2021/06/24 01:05:28;;;;;;;3.23;1.70;;;;;;;;;;5012669;28;20476;-65
2021/06/24 01:07:55;;;;;;;2.37;1.87;;;;;;;;;;5008961;28;20469;-65
2021/06/24 01:10:22;;;;;;;4.20;2.30;;;;;;;;;;5010217;28;20469;-64
2021/06/24 01:12:49;;;;;;;3.30;1.70;;;;;;;;;;5012818;28;20449;-65
2021/06/24 01:15:17;;;;;;;4.10;2.00;;;;;;;;;;5006738;28;20486;-65
2021/06/24 01:17:44;;;;;;;4.77;2.10;;;;;;;;;;4994180;28;20458;-64
2021/06/24 01:20:12;;;;;;;3.30;2.03;;;;;;;;;;5010112;28;20469;-65
2021/06/24 01:22:40;;;;;;;3.50;2.37;;;;;;;;;;5008850;28;20450;-65
2021/06/24 01:25:10;;;;;;;3.27;1.70;;;;;;;;;;5007078;28;20493;-65
2021/06/24 01:27:37;;;;;;;2.53;1.50;;;;;;;;;;5007639;28;21003;-65
2021/06/24 01:30:06;;;;;;;4.40;1.87;;;;;;;;;;4998860;28;20490;-64
2021/06/24 01:32:33;;;;;;;3.93;2.00;;;;;;;;;;5003602;28;20473;-64
2021/06/24 01:35:00;;;;;;;2.90;1.87;;;;;;;;;;4999084;28;20498;-64
2021/06/24 01:37:27;;;;;;;2.77;1.73;;;;;;;;;;4998531;28;20466;-64
2021/06/24 01:39:54;;;;;;;2.33;1.87;;;;;;;;;;5001052;28;20466;-65
2021/06/24 01:42:23;;;;;;;3.20;1.70;;;;;;;;;;4993603;28;20455;-65
2021/06/24 01:44:50;;;;;;;2.63;1.63;;;;;;;;;;5002167;28;20822;-65
2021/06/24 01:47:17;;;;;;;3.63;1.83;;;;;;;;;;5009820;28;20450;-64
2021/06/24 01:49:44;;;;;;;7.37;2.40;;;;;;;;;;5004887;28;20488;-65
2021/06/24 01:52:12;;;;;;;2.97;1.83;;;;;;;;;;5005541;28;20454;-65
2021/06/24 01:54:39;;;;;;;3.23;1.90;;;;;;;;;;5008656;28;20471;-63
2021/06/24 01:57:06;;;;;;;3.47;1.70;;;;;;;;;;5005557;28;20847;-65
2021/06/24 01:59:34;;;;;;;2.50;1.60;;;;;;;;;;4998587;28;20466;-64
2021/06/24 02:02:01;;;;;;;3.20;1.90;;;;;;;;;;5002831;28;20469;-65
2021/06/24 02:04:29;;;;;;;2.20;1.70;;;;;;;;;;4998677;28;20462;-65
2021/06/24 02:06:56;;;;;;;4.33;2.43;;;;;;;;;;5014490;28;20473;-65
2021/06/24 02:09:23;;;;;;;2.70;1.97;;;;;;;;;;5007687;28;20484;-64
2021/06/24 02:11:54;;;;;;;25.27;3.00;;;;;;;;;;5011851;28;21071;-65
2021/06/24 02:14:21;;;;;;;2.40;1.80;;;;;;;;;;5012314;28;20450;-65
2021/06/24 02:16:49;;;;;;;2.97;2.13;;;;;;;;;;5008948;28;20497;-65
2021/06/24 02:19:17;;;;;;;2.03;1.50;;;;;;;;;;5013030;28;20449;-65
2021/06/24 02:21:44;;;;;;;3.33;1.83;;;;;;;;;;5007480;28;20476;-65
2021/06/24 02:24:11;;;;;;;2.40;1.80;;;;;;;;;;4993381;28;20447;-65
2021/06/24 02:26:38;;;;;;;3.40;2.00;;;;;;;;;;5000429;28;20505;-65
2021/06/24 02:29:06;;;;;;;4.87;2.30;;;;;;;;;;5007111;28;20495;-65
2021/06/24 02:31:33;;;;;;;4.23;2.30;;;;;;;;;;5011103;28;20471;-64
2021/06/24 02:34:02;;;;;;;3.10;2.23;;;;;;;;;;5010586;28;20473;-65
2021/06/24 02:36:29;;;;;;;22.83;3.80;;;;;;;;;;5007970;28;20572;-64
2021/06/24 02:38:56;;;;;;;6.23;2.23;;;;;;;;;;5007076;28;20912;-65
2021/06/24 02:41:23;;;;;;;2.20;1.83;;;;;;;;;;4994105;28;20477;-65
2021/06/24 02:43:50;;;;;;;3.57;1.97;;;;;;;;;;4998405;28;20456;-64
2021/06/24 02:46:17;;;;;;;3.97;1.93;;;;;;;;;;5010399;28;20489;-64
2021/06/24 02:48:45;;;;;;;3.63;2.27;;;;;;;;;;5001557;28;20488;-64
2021/06/24 02:51:13;;;;;;;4.73;2.57;;;;;;;;;;5001651;28;20467;-64
2021/06/24 02:53:40;;;;;;;5.80;1.83;;;;;;;;;;5005375;28;20931;-64
2021/06/24 02:56:08;;;;;;;3.13;2.33;;;;;;;;;;4999811;28;20485;-64
2021/06/24 02:58:35;;;;;;;3.83;1.97;;;;;;;;;;5002951;28;20466;-64
2021/06/24 03:01:03;;;;;;;5.00;2.23;;;;;;;;;;5003183;28;20472;-64
2021/06/24 03:03:30;;;;;;;3.83;2.00;;;;;;;;;;5003234;28;20465;-64
2021/06/24 03:05:57;;;;;;;3.43;1.97;;;;;;;;;;5008505;28;20507;-64
2021/06/24 03:08:25;;;;;;;7.63;3.00;;;;;;;;;;5010010;28;20458;-65
2021/06/24 03:10:52;;;;;;;2.80;1.83;;;;;;;;;;5012441;28;20449;-63
2021/06/24 03:13:19;;;;;;;5.20;2.07;;;;;;;;;;5010066;28;20476;-65
2021/06/24 03:15:47;;;;;;;8.80;2.00;;;;;;;;;;5011445;28;20824;-63
2021/06/24 03:18:14;;;;;;;5.50;2.17;;;;;;;;;;5009837;28;20466;-64
2021/06/24 03:20:41;;;;;;;5.40;2.10;;;;;;;;;;5010913;28;20461;-64
2021/06/24 03:23:08;;;;;;;3.50;2.10;;;;;;;;;;5012356;28;20442;-65
2021/06/24 03:25:36;;;;;;;4.40;1.90;;;;;;;;;;5002997;28;20497;-62
2021/06/24 03:28:03;;;;;;;4.27;2.33;;;;;;;;;;4994493;28;20462;-65
2021/06/24 03:30:30;;;;;;;5.37;1.63;;;;;;;;;;5008689;28;20493;-65
2021/06/24 03:32:58;;;;;;;2.17;1.70;;;;;;;;;;5012853;28;20458;-62
2021/06/24 03:35:25;;;;;;;3.67;2.57;;;;;;;;;;5011511;28;21043;-64
2021/06/24 03:37:52;;;;;;;4.40;2.13;;;;;;;;;;5012322;28;20472;-64
2021/06/24 03:40:19;;;;;;;4.90;2.07;;;;;;;;;;5012577;28;21189;-64
2021/06/24 03:42:48;;;;;;;3.00;1.80;;;;;;;;;;5008581;28;20548;-64
2021/06/24 03:45:16;;;;;;;3.00;1.70;;;;;;;;;;5009424;28;20485;-64
2021/06/24 03:47:43;;;;;;;3.13;2.03;;;;;;;;;;5010173;28;20452;-64
2021/06/24 03:50:11;;;;;;;3.80;1.80;;;;;;;;;;5008202;28;20498;-64
2021/06/24 03:52:38;;;;;;;4.30;1.90;;;;;;;;;;4997299;28;20458;-64
2021/06/24 03:55:07;;;;;;;2.43;1.90;;;;;;;;;;4995885;28;21049;-65
2021/06/24 03:57:34;;;;;;;4.70;2.20;;;;;;;;;;4996935;28;20470;-63
2021/06/24 04:00:02;;;;;;;3.90;2.13;;;;;;;;;;5013264;28;20839;-64
2021/06/24 04:02:29;;;;;;;3.00;2.00;;;;;;;;;;5000616;28;20477;-64
2021/06/24 04:04:57;;;;;;;4.60;2.03;;;;;;;;;;5001532;28;20581;-64
2021/06/24 04:07:24;;;;;;;4.47;2.40;;;;;;;;;;4998558;28;20463;-65
2021/06/24 04:09:51;;;;;;;3.70;1.80;;;;;;;;;;5012956;28;20489;-64
2021/06/24 04:12:18;;;;;;;5.17;2.43;;;;;;;;;;5007391;28;20979;-63
2021/06/24 04:14:45;;;;;;;2.87;2.00;;;;;;;;;;5014652;28;20481;-64
2021/06/24 04:17:13;;;;;;;4.00;2.00;;;;;;;;;;5011675;28;20476;-63
2021/06/24 04:19:43;;;;;;;5.03;2.80;;;;;;;;;;4995785;28;20443;-65
2021/06/24 04:22:11;;;;;;;3.80;2.30;;;;;;;;;;5001817;28;20461;-65
2021/06/24 04:24:38;;;;;;;4.40;2.10;;;;;;;;;;4995760;28;20442;-64
2021/06/24 04:27:05;;;;;;;4.30;2.70;;;;;;;;;;4994137;28;20987;-64
2021/06/24 04:29:32;;;;;;;5.70;2.30;;;;;;;;;;5007563;28;20488;-62
2021/06/24 04:31:59;;;;;;;7.40;3.03;;;;;;;;;;4996214;28;20970;-64
2021/06/24 04:34:28;;;;;;;7.90;2.87;;;;;;;;;;5013261;28;20493;-64
2021/06/24 04:36:55;;;;;;;5.20;2.20;;;;;;;;;;5015352;28;20799;-65
2021/06/24 04:39:22;;;;;;;4.63;2.37;;;;;;;;;;5010025;28;20457;-65
2021/06/24 04:41:50;;;;;;;3.60;1.97;;;;;;;;;;5010325;28;20481;-64
2021/06/24 04:44:17;;;;;;;5.97;1.87;;;;;;;;;;5018932;28;20449;-63
2021/06/24 04:46:44;;;;;;;4.10;2.17;;;;;;;;;;5021498;28;20497;-64
2021/06/24 04:49:11;;;;;;;3.30;2.10;;;;;;;;;;5005055;28;20988;-64
2021/06/24 04:51:39;;;;;;;3.70;2.30;;;;;;;;;;5003838;28;20458;-65
2021/06/24 04:54:07;;;;;;;6.50;2.10;;;;;;;;;;5016375;28;20466;-65
2021/06/24 04:56:34;;;;;;;5.90;2.10;;;;;;;;;;5020584;28;20490;-64
2021/06/24 04:59:01;;;;;;;2.87;1.90;;;;;;;;;;5012888;28;20470;-64
2021/06/24 05:01:28;;;;;;;3.50;2.00;;;;;;;;;;5003365;28;20479;-65
2021/06/24 05:03:55;;;;;;;2.70;2.23;;;;;;;;;;5003569;28;20472;-65
2021/06/24 05:06:22;;;;;;;3.57;2.40;;;;;;;;;;5013569;28;20827;-65
2021/06/24 05:08:51;;;;;;;5.43;2.33;;;;;;;;;;4998432;28;20951;-64
2021/06/24 05:11:18;;;;;;;3.90;2.03;;;;;;;;;;4996636;28;20480;-65
2021/06/24 05:13:45;;;;;;;3.30;1.73;;;;;;;;;;5009670;28;20474;-65
2021/06/24 05:16:12;;;;;;;3.00;1.90;;;;;;;;;;5013007;28;20489;-65
2021/06/24 05:18:39;;;;;;;2.77;1.90;;;;;;;;;;5001448;28;20466;-64
2021/06/24 05:21:06;;;;;;;5.40;2.10;;;;;;;;;;5010866;28;20988;-64
2021/06/24 05:23:33;;;;;;;2.93;1.80;;;;;;;;;;5019990;28;20474;-64
2021/06/24 05:26:02;;;;;;;3.30;1.73;;;;;;;;;;5015948;28;20488;-64
2021/06/24 05:28:29;;;;;;;5.33;2.03;;;;;;;;;;5011103;28;20554;-64
2021/06/24 05:30:56;;;;;;;3.20;2.10;;;;;;;;;;5016503;28;20499;-65
2021/06/24 05:33:23;;;;;;;4.50;1.87;;;;;;;;;;5023766;28;20461;-65
2021/06/24 05:35:50;;;;;;;2.60;1.80;;;;;;;;;;5036050;23;20502;-66
2021/06/24 05:38:18;;;;;;;1.93;1.50;;;;;;;;;;4986331;28;20459;-67
2021/06/24 05:40:46;;;;;;;2.90;1.77;;;;;;;;;;4990806;28;20466;-66
2021/06/24 05:43:14;;;;;;;4.07;1.93;;;;;;;;;;4984952;28;20822;-65
2021/06/24 05:45:42;;;;;;;3.70;1.63;;;;;;;;;;4976416;28;20810;-65
2021/06/24 05:48:09;;;;;;;1.47;1.27;;;;;;;;;;4992562;28;20979;-67
2021/06/24 05:50:36;;;;;;;2.93;1.53;;;;;;;;;;5005737;28;20497;-67
2021/06/24 05:53:04;;;;;;;3.80;1.60;;;;;;;;;;5007101;28;20465;-67
2021/06/24 05:55:49;;;;;;;3.60;1.93;;;;;;;;;;5002964;28;20456;-67
2021/06/24 05:58:18;;;;;;;3.10;1.67;;;;;;;;;;5011443;28;20504;-66
2021/06/24 06:00:45;;;;;;;2.50;1.70;;;;;;;;;;5002083;28;20974;-68
2021/06/24 06:03:12;;;;;;;2.53;1.63;;;;;;;;;;4999828;28;20458;-67
2021/06/24 06:05:40;;;;;;;2.27;1.63;;;;;;;;;;4993785;28;20478;-67
2021/06/24 06:08:07;;;;;;;2.50;1.77;;;;;;;;;;4999067;28;20964;-67
2021/06/24 06:10:35;;;;;;;3.80;1.80;;;;;;;;;;4992412;28;21009;-67
2021/06/24 06:13:02;;;;;;;2.67;1.50;;;;;;;;;;4996471;28;20450;-66
2021/06/24 06:15:31;;;;;;;2.50;1.60;;;;;;;;;;5011286;28;21131;-68
2021/06/24 06:17:58;;;;;;;3.03;1.53;;;;;;;;;;5007748;28;20442;-68
2021/06/24 06:20:25;;;;;;;2.87;1.53;;;;;;;;;;5001931;28;20973;-67
2021/06/24 06:22:52;;;;;;;5.17;1.77;;;;;;;;;;5000990;28;20454;-67
2021/06/24 06:25:19;;;;;;;3.13;2.07;;;;;;;;;;5003003;28;20447;-67
2021/06/24 06:27:46;;;;;;;4.27;1.87;;;;;;;;;;4991914;28;20451;-72
2021/06/24 06:30:14;;;;;;;3.27;1.80;;;;;;;;;;4997867;28;20508;-67
2021/06/24 06:32:43;;;;;;;3.23;2.03;;;;;;;;;;5002052;28;20451;-69
2021/06/24 06:35:10;;;;;;;4.33;1.90;;;;;;;;;;5001120;28;20879;-70
2021/06/24 06:37:37;;;;;;;4.27;2.33;;;;;;;;;;4991311;28;20478;-69
2021/06/24 06:40:05;;;;;;;8.27;7.10;;;;;;;;;;4992110;28;20443;-65
2021/06/24 06:42:32;;;;;;;5.43;3.77;;;;;;;;;;4993974;28;20446;-64
2021/06/24 06:44:59;;;;;;;5.30;3.07;;;;;;;;;;5008736;28;21015;-64
2021/06/24 06:47:26;;;;;;;5.27;2.53;;;;;;;;;;5008317;28;20474;-64
2021/06/24 06:49:55;;;;;;;5.83;2.17;;;;;;;;;;5003824;28;20489;-66
2021/06/24 06:52:22;;;;;;;18.23;3.00;;;;;;;;;;4993554;28;20461;-65
2021/06/24 06:54:49;;;;;;;5.23;2.50;;;;;;;;;;5000953;28;20457;-65
2021/06/24 06:57:16;;;;;;;5.10;2.10;;;;;;;;;;5004062;28;20505;-65
2021/06/24 06:59:43;;;;;;;4.13;2.10;;;;;;;;;;4995876;28;20472;-66
2021/06/24 07:02:11;;;;;;;4.10;2.00;;;;;;;;;;5012030;28;20452;-66
2021/06/24 07:04:38;;;;;;;3.73;2.20;;;;;;;;;;5011293;28;20445;-67
2021/06/24 07:07:06;;;;;;;2.60;2.00;;;;;;;;;;5010895;28;20465;-66
2021/06/24 07:09:33;;;;;;;4.43;2.23;;;;;;;;;;5011824;28;20456;-66
2021/06/24 07:12:00;;;;;;;3.60;1.80;;;;;;;;;;5011235;28;20485;-66
2021/06/24 07:14:28;;;;;;;3.33;2.50;;;;;;;;;;5011481;28;20504;-66
2021/06/24 07:16:55;;;;;;;2.70;2.13;;;;;;;;;;5010386;28;20843;-66
2021/06/24 07:19:22;;;;;;;4.07;2.07;;;;;;;;;;5011404;28;20445;-66
2021/06/24 07:21:49;;;;;;;3.50;2.07;;;;;;;;;;5012092;28;20445;-66
2021/06/24 07:24:18;;;;;;;2.50;2.00;;;;;;;;;;5011831;28;20450;-67
2021/06/24 07:26:46;;;;;;;2.60;1.90;;;;;;;;;;5013212;28;20470;-66
2021/06/24 07:29:13;;;;;;;3.40;1.90;;;;;;;;;;5015303;28;20449;-65
2021/06/24 07:31:40;;;;;;;4.07;2.10;;;;;;;;;;5015210;28;20482;-66
2021/06/24 07:34:07;;;;;;;3.13;1.60;;;;;;;;;;5014672;28;20826;-67
2021/06/24 07:36:34;;;;;;;2.07;1.70;;;;;;;;;;5013255;28;20477;-66
2021/06/24 07:39:01;;;;;;;2.00;1.53;;;;;;;;;;5015264;28;20446;-66
2021/06/24 07:41:30;;;;;;;2.23;1.60;;;;;;;;;;5014870;28;20454;-66
2021/06/24 07:43:57;;;;;;;2.33;1.57;;;;;;;;;;5002034;28;20465;-64
2021/06/24 07:46:24;;;;;;;2.30;1.40;;;;;;;;;;4994431;28;20481;-66
2021/06/24 07:48:51;;;;;;;1.87;1.50;;;;;;;;;;4995309;28;20447;-65
2021/06/24 07:51:19;;;;;;;2.30;1.20;;;;;;;;;;4996262;28;20482;-67
2021/06/24 07:53:46;;;;;;;2.67;1.40;;;;;;;;;;4995223;28;20816;-71
2021/06/24 07:56:14;;;;;;;2.37;1.60;;;;;;;;;;5006335;28;20481;-65
2021/06/24 07:58:42;;;;;;;3.23;1.80;;;;;;;;;;5014505;28;20466;-64
2021/06/24 08:01:10;;;;;;;6.60;1.63;;;;;;;;;;5014603;28;20528;-66
2021/06/24 08:03:37;;;;;;;2.00;1.20;;;;;;;;;;5014881;28;20449;-68
2021/06/24 08:06:04;;;;;;;3.10;1.53;;;;;;;;;;5013997;28;20469;-69
2021/06/24 08:08:31;;;;;;;2.40;1.80;;;;;;;;;;5014273;28;20460;-69
2021/06/24 08:10:59;;;;;;;2.10;1.63;;;;;;;;;;5014492;28;20853;-69
2021/06/24 08:13:26;;;;;;;1.83;1.50;;;;;;;;;;5010159;28;20455;-67
2021/06/24 08:15:55;;;;;;;2.07;1.87;;;;;;;;;;4996436;28;20481;-69
2021/06/24 08:18:22;;;;;;;2.40;1.20;;;;;;;;;;4994672;28;20459;-68
2021/06/24 08:20:50;;;;;;;3.67;1.80;;;;;;;;;;4994766;28;20446;-68
2021/06/24 08:23:18;;;;;;;2.93;1.50;;;;;;;;;;4994318;28;20455;-68
2021/06/24 08:25:45;;;;;;;2.87;1.53;;;;;;;;;;4994047;28;20540;-68
2021/06/24 08:28:12;;;;;;;2.07;1.60;;;;;;;;;;4994556;28;20447;-69
2021/06/24 08:30:43;;;;;;;2.30;1.50;;;;;;;;;;5000269;28;20504;-69
2021/06/24 08:33:12;;;;;;;1.20;1.10;;;;;;;;;;5004434;28;20497;-67
2021/06/24 08:35:39;;;;;;;2.00;1.30;;;;;;;;;;5005236;28;21019;-68
2021/06/24 08:38:06;;;;;;;1.70;1.60;;;;;;;;;;5003768;28;20446;-68
2021/06/24 08:40:33;;;;;;;4.03;1.80;;;;;;;;;;5013949;28;20446;-68
2021/06/24 08:43:00;;;;;;;4.83;1.80;;;;;;;;;;5007923;28;20463;-68
2021/06/24 08:45:27;;;;;;;3.20;1.37;;;;;;;;;;4993531;28;20549;-68
2021/06/24 08:47:55;;;;;;;4.77;2.33;;;;;;;;;;5001649;28;20460;-65
2021/06/24 08:50:23;;;;;;;3.50;1.80;;;;;;;;;;5013640;28;20957;-67
2021/06/24 08:52:51;;;;;;;3.40;2.10;;;;;;;;;;5008141;28;20456;-67
2021/06/24 08:55:18;;;;;;;2.43;1.60;;;;;;;;;;5003529;28;20545;-66
2021/06/24 08:57:46;;;;;;;2.80;1.80;;;;;;;;;;4997855;28;20455;-66
2021/06/24 09:00:13;;;;;;;2.93;1.40;;;;;;;;;;4994157;28;20453;-67
2021/06/24 09:02:41;;;;;;;4.20;1.50;;;;;;;;;;4996455;28;20979;-67
2021/06/24 09:05:09;;;;;;;4.40;1.60;;;;;;;;;;5013799;28;20445;-66
2021/06/24 09:07:49;;;;;;;2.53;1.50;;;;;;;;;;5010152;28;20482;-67
2021/06/24 09:10:16;;;;;;;4.10;2.00;;;;;;;;;;5010585;28;20453;-67
2021/06/24 09:12:54;;;;;;;2.50;1.60;;;;;;;;;;5012587;28;20482;-67
2021/06/24 09:15:21;;;;;;;3.13;1.50;;;;;;;;;;5012497;28;20924;-67
2021/06/24 09:17:48;;;;;;;2.60;2.40;;;;;;;;;;5010598;28;20829;-67
2021/06/24 09:20:32;;;;;;;5.87;3.00;;;;;;;;;;5001760;28;20460;-66
2021/06/24 09:23:11;;;;;;;3.80;1.70;;;;;;;;;;5013254;28;20450;-66
2021/06/24 09:25:40;;;;;;;4.27;2.60;;;;;;;;;;5007548;28;20478;-67
2021/06/24 09:28:07;;;;;;;3.70;2.93;;;;;;;;;;4993450;28;20462;-67
2021/06/24 09:30:35;;;;;;;4.80;3.33;;;;;;;;;;4996343;28;20496;-66
2021/06/24 09:33:08;;;;;;;3.63;3.33;;;;;;;;;;5011545;28;20453;-66
2021/06/24 09:35:35;;;;;;;4.30;3.90;;;;;;;;;;5012465;28;20470;-64
2021/06/24 09:38:03;;;;;;;4.37;3.37;;;;;;;;;;5013201;28;20433;-66
2021/06/24 09:40:45;;;;;;;4.67;4.27;;;;;;;;;;5012466;28;20446;-65
2021/06/24 09:43:17;;;;;;;4.33;3.93;;;;;;;;;;4992749;28;20456;-67
2021/06/24 09:45:59;;;;;;;4.63;4.27;;;;;;;;;;4991744;28;20838;-67
2021/06/24 09:48:32;;;;;;;4.63;3.67;;;;;;;;;;4993749;28;20451;-66
2021/06/24 09:51:05;;;;;;;4.33;3.93;;;;;;;;;;5012805;28;20477;-67
2021/06/24 09:53:33;;;;;;;4.10;3.70;;;;;;;;;;5012763;28;20453;-67
2021/06/24 09:56:16;;;;;;;4.10;3.70;;;;;;;;;;5011769;28;20476;-68
2021/06/24 09:58:48;;;;;;;4.30;4.00;;;;;;;;;;5012827;28;20440;-67
2021/06/24 10:01:26;;;;;;;6.13;4.90;;;;;;;;;;5012480;28;20988;-67
2021/06/24 10:03:54;;;;;;;4.67;4.37;;;;;;;;;;5012294;28;20865;-67
2021/06/24 10:06:21;;;;;;;5.23;4.50;;;;;;;;;;5011676;28;20984;-67
2021/06/24 10:08:48;;;;;;;4.27;3.80;;;;;;;;;;5012597;28;20453;-68
2021/06/24 10:11:16;;;;;;;3.70;3.40;;;;;;;;;;5012707;28;20865;-67
2021/06/24 10:13:43;;;;;;;4.30;4.00;;;;;;;;;;5012599;28;20449;-67
2021/06/24 10:16:11;;;;;;;5.27;4.07;;;;;;;;;;5011367;28;20988;-67
2021/06/24 10:18:39;;;;;;;4.70;4.30;;;;;;;;;;5012210;28;20801;-67
2021/06/24 10:21:06;;;;;;;3.70;3.40;;;;;;;;;;5012260;28;20449;-67
2021/06/24 10:23:33;;;;;;;4.53;4.17;;;;;;;;;;5012178;28;20450;-66
2021/06/24 10:26:01;;;;;;;4.10;3.70;;;;;;;;;;5011444;28;20480;-67
2021/06/24 10:28:29;;;;;;;4.53;4.13;;;;;;;;;;5012166;28;20501;-67
2021/06/24 10:30:56;;;;;;;4.60;4.20;;;;;;;;;;5011967;28;20845;-68
2021/06/24 10:33:24;;;;;;;4.60;4.10;;;;;;;;;;5012255;28;20446;-67
2021/06/24 10:35:52;;;;;;;5.00;4.50;;;;;;;;;;5011265;28;20482;-67
2021/06/24 10:38:20;;;;;;;5.23;4.80;;;;;;;;;;5011718;28;20796;-66
2021/06/24 10:40:56;;;;;;;5.00;4.50;;;;;;;;;;5012299;28;20450;-67
2021/06/24 10:43:24;;;;;;;4.80;4.30;;;;;;;;;;5011637;28;20429;-66
2021/06/24 10:46:12;;;;;;;5.13;4.63;;;;;;;;;;5011439;28;20473;-67
2021/06/24 10:48:39;;;;;;;5.87;4.87;;;;;;;;;;5011871;28;20462;-65
2021/06/24 10:51:07;;;;;;;4.90;4.50;;;;;;;;;;5011834;28;20963;-66
2021/06/24 10:53:50;;;;;;;4.63;4.23;;;;;;;;;;5011690;28;20451;-66
2021/06/24 10:56:27;;;;;;;4.67;4.27;;;;;;;;;;5011298;28;20505;-66
2021/06/24 10:58:54;;;;;;;5.27;4.77;;;;;;;;;;5012050;28;20444;-66
2021/06/24 11:01:43;;;;;;;5.80;5.23;;;;;;;;;;5013774;28;20937;-66
2021/06/24 11:04:27;;;;;;;5.80;5.30;;;;;;;;;;5015679;28;20480;-66
2021/06/24 11:06:54;;;;;;;5.40;4.90;;;;;;;;;;5015322;28;20872;-66
2021/06/24 11:09:21;;;;;;;5.10;4.67;;;;;;;;;;5015944;28;20446;-65
2021/06/24 11:11:48;;;;;;;6.60;5.10;;;;;;;;;;5015623;28;20663;-66
2021/06/24 11:14:17;;;;;;;6.20;5.60;;;;;;;;;;5015788;28;20817;-65
2021/06/24 11:16:46;;;;;;;6.33;5.73;;;;;;;;;;5014678;28;20470;-65
2021/06/24 11:19:14;;;;;;;6.30;5.73;;;;;;;;;;5015782;28;20449;-65
2021/06/24 11:21:51;;;;;;;6.10;5.50;;;;;;;;;;5015522;28;20810;-66
2021/06/24 11:24:19;;;;;;;4.47;4.07;;;;;;;;;;5015540;28;20898;-65
2021/06/24 11:26:47;;;;;;;4.87;4.07;;;;;;;;;;5014585;28;20552;-67
2021/06/24 11:29:24;;;;;;;4.60;4.20;;;;;;;;;;5014940;28;20467;-66
2021/06/24 11:31:55;;;;;;;5.77;4.50;;;;;;;;;;5015647;28;20480;-66
2021/06/24 11:34:31;;;;;;;4.80;4.30;;;;;;;;;;5015398;28;20777;-66
2021/06/24 11:36:59;;;;;;;5.57;5.07;;;;;;;;;;5021815;23;20621;-66
2021/06/24 11:39:28;;;;;;;7.23;6.60;;;;;;;;;;4993600;28;20462;-66
2021/06/24 11:41:56;;;;;;;6.47;5.73;;;;;;;;;;4995483;28;20818;-66
2021/06/24 11:44:26;;;;;;;6.97;6.33;;;;;;;;;;4995179;28;20458;-67
2021/06/24 11:47:02;;;;;;;6.53;6.03;;;;;;;;;;4994924;28;20526;-66
2021/06/24 12:00:58;;;;;;;4.60;4.27;;;;;;;;;;4995230;28;20909;-67
2021/06/24 12:03:26;;;;;;;8.73;4.77;;;;;;;;;;4995456;28;20454;-69
2021/06/24 12:05:53;;;;;;;5.50;5.00;;;;;;;;;;4994416;28;20871;-66
2021/06/24 12:08:21;;;;;;;5.40;4.70;;;;;;;;;;4994989;28;21026;-66
2021/06/24 12:10:49;;;;;;;4.97;4.53;;;;;;;;;;4995294;28;20461;-66
2021/06/24 12:13:29;;;;;;;5.70;5.10;;;;;;;;;;4994804;28;20513;-66
2021/06/24 12:15:56;;;;;;;5.57;4.80;;;;;;;;;;4994412;28;20438;-66
2021/06/24 12:18:34;;;;;;;6.07;3.90;;;;;;;;;;4994786;28;20950;-67
2021/06/24 12:21:05;;;;;;;4.70;3.63;;;;;;;;;;4995078;28;20439;-66
2021/06/24 12:23:32;;;;;;;4.10;3.70;;;;;;;;;;4994860;28;20478;-65
2021/06/24 12:26:00;;;;;;;3.43;3.13;;;;;;;;;;4994419;28;20455;-66
2021/06/24 12:28:27;;;;;;;5.20;3.80;;;;;;;;;;4995012;28;20446;-67
2021/06/24 12:30:55;;;;;;;5.40;3.43;;;;;;;;;;4994960;28;20457;-66
2021/06/24 12:33:25;;;;;;;4.50;3.40;;;;;;;;;;4994851;28;20890;-66
2021/06/24 12:35:54;;;;;;;4.77;3.50;;;;;;;;;;4994103;28;20479;-65
2021/06/24 12:38:23;;;;;;;5.30;3.07;;;;;;;;;;4994496;28;20449;-66
2021/06/24 12:40:51;;;;;;;4.03;3.30;;;;;;;;;;4994895;28;20446;-66
2021/06/24 12:43:19;;;;;;;3.70;3.13;;;;;;;;;;4995182;28;20449;-66
2021/06/24 12:45:47;;;;;;;3.30;3.00;;;;;;;;;;4994331;28;20443;-65
2021/06/24 12:48:27;;;;;;;4.33;3.70;;;;;;;;;;4994501;28;21017;-66
2021/06/24 12:50:56;;;;;;;4.07;3.67;;;;;;;;;;4994672;28;20450;-66
2021/06/24 12:53:34;;;;;;;4.30;3.90;;;;;;;;;;4994955;28;20489;-66
2021/06/24 12:56:02;;;;;;;4.47;3.03;;;;;;;;;;4993928;28;20459;-66
2021/06/24 12:58:33;;;;;;;3.67;2.70;;;;;;;;;;4994422;28;20458;-66
2021/06/24 13:01:09;;;;;;;4.70;3.47;;;;;;;;;;4993858;28;20864;-67
2021/06/24 13:03:37;;;;;;;4.30;3.90;;;;;;;;;;4994931;28;20512;-67
2021/06/24 13:06:13;;;;;;;3.33;3.00;;;;;;;;;;4994141;28;20446;-66
2021/06/24 13:08:50;;;;;;;4.40;3.37;;;;;;;;;;4994734;28;20438;-67
2021/06/24 13:11:19;;;;;;;5.33;3.63;;;;;;;;;;4994915;28;20812;-66
2021/06/24 13:13:53;;;;;;;3.57;3.00;;;;;;;;;;4995002;28;21001;-66
2021/06/24 13:16:28;;;;;;;4.40;3.03;;;;;;;;;;4996035;28;20474;-66
2021/06/24 13:18:56;;;;;;;3.50;2.90;;;;;;;;;;4994424;28;20963;-66
2021/06/24 13:21:24;;;;;;;2.80;2.53;;;;;;;;;;4994230;28;20456;-65
2021/06/24 13:23:51;;;;;;;4.50;3.47;;;;;;;;;;4993205;28;20451;-66
2021/06/24 13:26:20;;;;;;;4.10;3.10;;;;;;;;;;4993727;28;20478;-66
2021/06/24 13:28:56;;;;;;;3.10;2.90;;;;;;;;;;4985837;28;20470;-67
2021/06/24 13:31:25;;;;;;;5.67;3.07;;;;;;;;;;4993976;28;20854;-66
2021/06/24 13:33:52;;;;;;;4.20;3.20;;;;;;;;;;4993508;28;20494;-66
2021/06/24 13:36:23;;;;;;;2.93;2.63;;;;;;;;;;4992742;28;20489;-66
2021/06/24 13:38:56;;;;;;;3.30;2.87;;;;;;;;;;4993697;28;20938;-66
2021/06/24 13:41:23;;;;;;;3.30;2.90;;;;;;;;;;4994038;28;20529;-66
2021/06/24 13:44:02;;;;;;;3.63;3.33;;;;;;;;;;4994189;28;20472;-66
2021/06/24 13:46:29;;;;;;;3.80;2.93;;;;;;;;;;4993089;28;20532;-66
2021/06/24 13:48:56;;;;;;;6.93;3.37;;;;;;;;;;4993519;28;20464;-67
2021/06/24 13:51:24;;;;;;;3.13;2.93;;;;;;;;;;4993509;28;20647;-67
2021/06/24 13:53:59;;;;;;;3.13;2.93;;;;;;;;;;4993725;28;20482;-66
2021/06/24 13:56:27;;;;;;;3.20;2.90;;;;;;;;;;4992706;28;20474;-66
2021/06/24 13:58:54;;;;;;;5.63;3.30;;;;;;;;;;4993689;28;20461;-66
2021/06/24 14:01:22;;;;;;;5.30;3.23;;;;;;;;;;4993271;28;20451;-66
2021/06/24 14:03:49;;;;;;;7.00;3.60;;;;;;;;;;4993794;28;20450;-66
2021/06/24 14:06:17;;;;;;;3.17;2.70;;;;;;;;;;4992321;28;21105;-66
2021/06/24 14:08:44;;;;;;;3.70;3.13;;;;;;;;;;4993614;28;20541;-66
2021/06/24 14:11:14;;;;;;;4.10;3.00;;;;;;;;;;4993674;28;21117;-66
2021/06/24 14:13:42;;;;;;;5.17;2.90;;;;;;;;;;4993119;28;21182;-67
2021/06/24 14:16:10;;;;;;;4.30;2.90;;;;;;;;;;4992020;28;20479;-66
2021/06/24 14:18:37;;;;;;;3.40;3.00;;;;;;;;;;4993302;28;20461;-66
2021/06/24 14:21:05;;;;;;;3.07;2.77;;;;;;;;;;4993422;28;20462;-66
2021/06/24 14:23:32;;;;;;;6.47;4.30;;;;;;;;;;4992815;28;20447;-66
2021/06/24 14:26:00;;;;;;;3.70;3.30;;;;;;;;;;4992542;28;20458;-66
2021/06/24 14:28:28;;;;;;;5.30;3.23;;;;;;;;;;4992676;28;20456;-66
2021/06/24 14:30:55;;;;;;;3.57;3.27;;;;;;;;;;4993128;28;20447;-66
2021/06/24 14:33:23;;;;;;;3.13;2.80;;;;;;;;;;4993667;28;20504;-67
2021/06/24 14:35:50;;;;;;;6.10;3.40;;;;;;;;;;4992424;28;20459;-66
2021/06/24 14:38:17;;;;;;;4.17;3.50;;;;;;;;;;4993320;28;20454;-66
2021/06/24 14:40:44;;;;;;;3.80;3.20;;;;;;;;;;4992998;28;20446;-66
2021/06/24 14:43:11;;;;;;;4.20;3.80;;;;;;;;;;4993039;28;20442;-66
2021/06/24 14:45:40;;;;;;;4.80;3.30;;;;;;;;;;4991930;28;20972;-66
2021/06/24 14:48:07;;;;;;;3.63;3.33;;;;;;;;;;4992566;28;20478;-66
2021/06/24 14:50:36;;;;;;;4.03;3.63;;;;;;;;;;4992891;28;20462;-65
2021/06/24 14:53:03;;;;;;;3.70;3.40;;;;;;;;;;4992892;28;20489;-66
2021/06/24 14:55:34;;;;;;;3.80;3.37;;;;;;;;;;4992183;28;20454;-66
2021/06/24 14:58:01;;;;;;;4.10;3.43;;;;;;;;;;4992715;28;20470;-66
2021/06/24 15:00:29;;;;;;;8.80;5.93;;;;;;;;;;4993117;28;20455;-66
2021/06/24 15:02:58;;;;;;;5.10;4.60;;;;;;;;;;4993145;28;20457;-66